createdAt,value
2023-05-09T00:00:38.562Z,144.25
2023-05-09T00:01:38.601Z,144.24
2023-05-09T00:02:38.736Z,147.07
2023-05-09T00:03:38.564Z,149.70
2023-05-09T00:04:38.545Z,150.74
2023-05-09T00:05:38.506Z,151.95
2023-05-09T00:06:38.496Z,150.62
2023-05-09T00:07:38.506Z,149.72
2023-05-09T00:08:38.482Z,149.61
2023-05-09T00:09:38.494Z,147.15
2023-05-09T00:10:38.510Z,148.27
2023-05-09T00:11:38.472Z,145.80
2023-05-09T00:12:38.473Z,144.88
2023-05-09T00:13:38.463Z,146.94
2023-05-09T00:14:38.451Z,148.76
2023-05-09T00:15:38.471Z,148.89
2023-05-09T00:16:38.470Z,144.96
2023-05-09T00:17:38.718Z,148.06
2023-05-09T00:18:38.521Z,146.79
2023-05-09T00:19:38.456Z,149.46
2023-05-09T00:20:38.515Z,149.72
2023-05-09T00:21:38.573Z,151.85
2023-05-09T00:22:38.590Z,149.93
2023-05-09T00:23:38.628Z,152.81
2023-05-09T00:24:38.654Z,152.82
2023-05-09T00:25:38.685Z,153.70
2023-05-09T00:26:38.696Z,152.23
2023-05-09T00:27:38.752Z,151.44
2023-05-09T00:28:38.778Z,152.75
2023-05-09T00:29:38.820Z,153.20
2023-05-09T00:30:38.823Z,153.79
2023-05-09T00:31:38.876Z,153.92
2023-05-09T00:32:38.905Z,152.47
2023-05-09T00:33:38.936Z,152.56
2023-05-09T00:34:39.030Z,152.33
2023-05-09T00:35:39.005Z,153.15
2023-05-09T00:36:39.021Z,154.16
2023-05-09T00:37:39.051Z,155.00
2023-05-09T00:38:39.076Z,153.13
2023-05-09T00:39:39.144Z,154.21
2023-05-09T00:40:39.144Z,151.72
2023-05-09T00:41:39.201Z,151.06
2023-05-09T00:42:39.216Z,152.66
2023-05-09T00:43:39.246Z,150.79
2023-05-09T00:44:39.273Z,151.59
2023-05-09T00:45:39.294Z,151.30
2023-05-09T00:46:39.339Z,152.02
2023-05-09T00:47:39.441Z,149.66
2023-05-09T00:48:39.422Z,148.87
2023-05-09T00:49:39.427Z,151.79
2023-05-09T00:50:39.552Z,146.85
2023-05-09T00:51:39.496Z,149.57
2023-05-09T00:52:39.536Z,150.02
2023-05-09T00:53:39.562Z,149.27
2023-05-09T00:54:39.596Z,151.15
2023-05-09T00:55:39.597Z,148.46
2023-05-09T00:56:39.654Z,151.14
2023-05-09T00:57:39.685Z,150.96
2023-05-09T00:58:39.698Z,150.36
2023-05-09T00:59:39.763Z,151.56
2023-05-09T01:00:39.770Z,151.97
2023-05-09T01:01:39.872Z,151.00
2023-05-09T01:02:39.919Z,150.32
2023-05-09T01:03:40.037Z,151.28
2023-05-09T01:04:39.938Z,148.82
2023-05-09T01:05:39.955Z,150.67
2023-05-09T01:06:40.075Z,147.36
2023-05-09T01:07:40.050Z,150.29
2023-05-09T01:08:40.072Z,150.10
2023-05-09T01:09:40.100Z,150.92
2023-05-09T01:10:40.115Z,150.13
2023-05-09T01:11:40.156Z,147.82
2023-05-09T01:12:40.248Z,150.65
2023-05-09T01:13:40.232Z,150.11
2023-05-09T01:14:40.259Z,146.02
2023-05-09T01:15:40.318Z,148.72
2023-05-09T01:16:40.366Z,152.48
2023-05-09T01:17:40.412Z,149.60
2023-05-09T01:18:40.451Z,153.24
2023-05-09T01:19:40.499Z,155.30
2023-05-09T01:20:40.534Z,153.58
2023-05-09T01:21:40.571Z,153.11
2023-05-09T01:22:40.687Z,153.02
2023-05-09T01:23:40.635Z,151.94
2023-05-09T01:24:40.674Z,153.28
2023-05-09T01:25:40.710Z,155.09
2023-05-09T01:26:40.768Z,153.75
2023-05-09T01:27:40.790Z,154.00
2023-05-09T01:28:40.798Z,149.05
2023-05-09T01:29:40.817Z,153.52
2023-05-09T01:30:40.822Z,152.29
2023-05-09T01:31:40.921Z,154.48
2023-05-09T01:32:40.948Z,154.46
2023-05-09T01:33:40.943Z,155.78
2023-05-09T01:34:41.006Z,156.78
2023-05-09T01:35:41.025Z,156.61
2023-05-09T01:36:41.086Z,159.76
2023-05-09T01:37:41.113Z,160.28
2023-05-09T01:38:41.269Z,163.82
2023-05-09T01:39:41.201Z,166.95
2023-05-09T01:40:41.239Z,167.30
2023-05-09T01:41:41.298Z,166.64
2023-05-09T01:42:41.334Z,167.17
2023-05-09T01:43:41.422Z,164.37
2023-05-09T01:44:41.406Z,165.55
2023-05-09T01:45:41.410Z,166.77
2023-05-09T01:46:41.478Z,163.19
2023-05-09T01:47:41.585Z,165.93
2023-05-09T01:48:41.513Z,167.18
2023-05-09T01:49:41.513Z,165.13
2023-05-09T01:50:41.575Z,167.76
2023-05-09T01:51:43.639Z,169.38
2023-05-09T01:52:41.653Z,166.57
2023-05-09T01:53:41.705Z,167.80
2023-05-09T01:54:41.821Z,165.81
2023-05-09T01:55:41.795Z,168.43
2023-05-09T01:56:41.826Z,169.07
2023-05-09T01:57:41.893Z,169.11
2023-05-09T01:58:41.904Z,170.03
2023-05-09T01:59:41.921Z,168.21
2023-05-09T02:00:42.020Z,169.59
2023-05-09T02:01:42.037Z,169.54
2023-05-09T02:02:42.153Z,168.87
2023-05-09T02:03:42.099Z,169.40
2023-05-09T02:04:42.128Z,171.70
2023-05-09T02:05:42.194Z,170.84
2023-05-09T02:06:42.228Z,169.99
2023-05-09T02:07:42.269Z,168.44
2023-05-09T02:08:42.293Z,169.07
2023-05-09T02:09:42.330Z,166.71
2023-05-09T02:10:42.457Z,168.38
2023-05-09T02:11:42.443Z,166.80
2023-05-09T02:12:42.494Z,168.63
2023-05-09T02:13:42.514Z,170.77
2023-05-09T02:14:42.562Z,171.31
2023-05-09T02:15:42.594Z,171.60
2023-05-09T02:16:42.653Z,173.97
2023-05-09T02:17:42.695Z,172.84
2023-05-09T02:18:42.728Z,173.01
2023-05-09T02:19:42.750Z,173.90
2023-05-09T02:20:42.817Z,169.38
2023-05-09T02:21:42.862Z,171.26
2023-05-09T02:22:42.904Z,171.39
2023-05-09T02:23:42.964Z,170.90
2023-05-09T02:24:42.977Z,171.18
2023-05-09T02:25:42.993Z,169.91
2023-05-09T02:26:43.138Z,168.89
2023-05-09T02:27:43.110Z,170.67
2023-05-09T02:28:43.113Z,169.61
2023-05-09T02:29:43.113Z,171.04
2023-05-09T02:30:43.194Z,172.62
2023-05-09T02:31:43.326Z,174.08
2023-05-09T02:32:43.291Z,174.86
2023-05-09T02:33:43.301Z,176.15
2023-05-09T02:34:43.302Z,173.91
2023-05-09T02:35:43.335Z,173.18
2023-05-09T02:36:43.406Z,178.31
2023-05-09T02:37:43.438Z,178.76
2023-05-09T02:38:43.459Z,178.88
2023-05-09T02:39:43.474Z,182.22
2023-05-09T02:40:43.489Z,181.68
2023-05-09T02:41:43.509Z,178.92
2023-05-09T02:42:43.663Z,177.89
2023-05-09T02:43:43.634Z,177.70
2023-05-09T02:44:43.639Z,176.49
2023-05-09T02:45:43.740Z,177.05
2023-05-09T02:46:43.727Z,175.91
2023-05-09T02:47:43.830Z,172.31
2023-05-09T02:48:43.822Z,174.78
2023-05-09T02:49:43.881Z,173.71
2023-05-09T02:50:43.905Z,176.04
2023-05-09T02:51:43.987Z,176.64
2023-05-09T02:52:43.996Z,175.25
2023-05-09T02:53:44.021Z,174.14
2023-05-09T02:54:44.076Z,173.23
2023-05-09T02:55:44.101Z,173.19
2023-05-09T02:56:44.137Z,173.50
2023-05-09T02:57:44.179Z,175.14
2023-05-09T02:58:44.321Z,175.74
2023-05-09T02:59:44.297Z,175.86
2023-05-09T03:00:44.329Z,176.56
2023-05-09T03:01:44.394Z,176.15
2023-05-09T03:02:44.504Z,177.41
2023-05-09T03:03:44.527Z,176.66
2023-05-09T03:04:44.483Z,179.86
2023-05-09T03:05:44.559Z,177.70
2023-05-09T03:06:44.574Z,179.07
2023-05-09T03:07:44.604Z,180.60
2023-05-09T03:08:44.654Z,180.20
2023-05-09T03:09:44.696Z,177.39
2023-05-09T03:10:44.731Z,179.14
2023-05-09T03:11:44.787Z,181.31
2023-05-09T03:12:44.880Z,183.55
2023-05-09T03:13:44.875Z,185.69
2023-05-09T03:14:44.996Z,184.25
2023-05-09T03:15:45.032Z,181.49
2023-05-09T03:16:45.009Z,182.41
2023-05-09T03:17:45.060Z,181.35
2023-05-09T03:18:45.064Z,182.42
2023-05-09T03:19:45.106Z,184.80
2023-05-09T03:20:45.144Z,184.36
2023-05-09T03:21:45.193Z,182.35
2023-05-09T03:22:45.229Z,183.00
2023-05-09T03:23:45.247Z,181.93
2023-05-09T03:24:45.265Z,181.87
2023-05-09T03:25:45.313Z,178.47
2023-05-09T03:26:45.362Z,180.89
2023-05-09T03:27:45.405Z,180.23
2023-05-09T03:28:45.401Z,177.62
2023-05-09T03:29:45.452Z,179.36
2023-05-09T03:30:45.587Z,179.72
2023-05-09T03:31:45.594Z,182.22
2023-05-09T03:32:45.696Z,181.22
2023-05-09T03:33:45.648Z,182.04
2023-05-09T03:34:45.694Z,184.59
2023-05-09T03:35:45.726Z,183.46
2023-05-09T03:36:45.780Z,181.87
2023-05-09T03:37:45.807Z,181.11
2023-05-09T03:38:45.999Z,183.21
2023-05-09T03:39:45.915Z,184.68
2023-05-09T03:40:45.917Z,180.83
2023-05-09T03:41:45.963Z,182.36
2023-05-09T03:42:46.006Z,183.09
2023-05-09T03:43:46.023Z,181.85
2023-05-09T03:44:46.080Z,181.96
2023-05-09T03:45:46.122Z,181.65
2023-05-09T03:46:46.243Z,182.73
2023-05-09T03:47:46.284Z,178.55
2023-05-09T03:48:46.215Z,178.88
2023-05-09T03:49:46.228Z,178.49
2023-05-09T03:50:46.267Z,179.16
2023-05-09T03:51:46.324Z,179.17
2023-05-09T03:52:46.390Z,178.19
2023-05-09T03:53:46.401Z,178.71
2023-05-09T03:54:46.392Z,179.24
2023-05-09T03:55:46.443Z,178.49
2023-05-09T03:56:46.468Z,177.34
2023-05-09T03:57:46.485Z,178.18
2023-05-09T03:58:46.534Z,181.08
2023-05-09T03:59:46.571Z,178.88
2023-05-09T04:00:46.592Z,175.32
2023-05-09T04:01:46.668Z,175.88
2023-05-09T04:02:46.795Z,179.42
2023-05-09T04:03:46.839Z,179.85
2023-05-09T04:04:46.763Z,178.59
2023-05-09T04:05:46.790Z,180.83
2023-05-09T04:06:46.867Z,180.13
2023-05-09T04:07:46.865Z,180.54
2023-05-09T04:08:46.935Z,178.10
2023-05-09T04:09:46.958Z,177.21
2023-05-09T04:10:46.996Z,178.47
2023-05-09T04:11:47.063Z,179.23
2023-05-09T04:12:47.121Z,178.32
2023-05-09T04:13:47.150Z,176.13
2023-05-09T04:14:49.002Z,177.61
2023-05-09T04:15:47.232Z,177.54
2023-05-09T04:16:47.481Z,176.98
2023-05-09T04:17:47.342Z,180.20
2023-05-09T04:18:47.426Z,182.55
2023-05-09T04:19:47.346Z,179.65
2023-05-09T04:20:47.368Z,180.17
2023-05-09T04:21:47.402Z,178.95
2023-05-09T04:22:47.438Z,180.72
2023-05-09T04:23:47.486Z,177.33
2023-05-09T04:24:47.559Z,177.11
2023-05-09T04:25:47.564Z,181.04
2023-05-09T04:26:47.594Z,178.15
2023-05-09T04:27:47.614Z,178.69
2023-05-09T04:28:47.643Z,179.22
2023-05-09T04:29:47.673Z,181.92
2023-05-09T04:30:47.767Z,181.69
2023-05-09T04:31:47.974Z,177.59
2023-05-09T04:32:47.775Z,180.10
2023-05-09T04:33:47.813Z,178.37
2023-05-09T04:34:47.930Z,178.48
2023-05-09T04:35:47.879Z,178.90
2023-05-09T04:36:47.914Z,179.48
2023-05-09T04:37:47.966Z,180.94
2023-05-09T04:38:48.016Z,181.74
2023-05-09T04:39:48.059Z,180.28
2023-05-09T04:40:48.094Z,179.98
2023-05-09T04:41:48.180Z,178.06
2023-05-09T04:42:48.193Z,182.46
2023-05-09T04:43:48.252Z,182.67
2023-05-09T04:44:48.271Z,183.71
2023-05-09T04:45:48.326Z,185.46
2023-05-09T04:46:48.321Z,184.70
2023-05-09T04:47:48.386Z,187.49
2023-05-09T04:48:48.368Z,187.51
2023-05-09T04:49:48.405Z,184.17
2023-05-09T04:50:48.565Z,187.48
2023-05-09T04:51:48.447Z,182.53
2023-05-09T04:52:48.483Z,181.04
2023-05-09T04:53:48.520Z,182.94
2023-05-09T04:54:48.617Z,184.46
2023-05-09T04:55:48.620Z,183.21
2023-05-09T04:56:50.633Z,184.00
2023-05-09T04:57:48.695Z,183.27
2023-05-09T04:58:48.751Z,183.43
2023-05-09T04:59:48.812Z,184.48
2023-05-09T05:00:48.806Z,184.71
2023-05-09T05:01:48.895Z,186.15
2023-05-09T05:02:48.933Z,187.10
2023-05-09T05:03:48.904Z,188.42
2023-05-09T05:04:48.973Z,188.53
2023-05-09T05:05:48.988Z,189.66
2023-05-09T05:06:49.081Z,191.95
2023-05-09T05:07:49.036Z,195.97
2023-05-09T05:08:49.103Z,194.71
2023-05-09T05:09:49.123Z,195.34
2023-05-09T05:10:49.193Z,196.27
2023-05-09T05:11:59.532Z,197.18
2023-05-09T05:12:50.186Z,197.34
2023-05-09T05:13:49.185Z,197.63
2023-05-09T05:14:49.183Z,196.80
2023-05-09T05:15:49.188Z,198.33
2023-05-09T05:16:49.136Z,199.55
2023-05-09T05:17:49.307Z,200.90
2023-05-09T05:18:49.131Z,199.62
2023-05-09T05:19:49.131Z,203.22
2023-05-09T05:20:49.109Z,203.59
2023-05-09T05:21:49.104Z,204.79
2023-05-09T05:22:49.201Z,203.06
2023-05-09T05:23:49.150Z,203.80
2023-05-09T05:24:49.195Z,203.27
2023-05-09T05:25:49.245Z,202.63
2023-05-09T05:26:49.314Z,211.39
2023-05-09T05:27:49.304Z,213.90
2023-05-09T05:28:49.925Z,218.46
2023-05-09T05:29:49.386Z,221.36
2023-05-09T05:30:49.428Z,233.47
2023-05-09T05:31:49.546Z,243.24
2023-05-09T05:32:49.582Z,245.99
2023-05-09T05:33:49.584Z,250.21
2023-05-09T05:34:49.692Z,246.92
2023-05-09T05:35:49.690Z,250.00
2023-05-09T05:36:49.682Z,250.66
2023-05-09T05:37:50.031Z,247.14
2023-05-09T05:38:49.864Z,250.00
2023-05-09T05:39:49.777Z,249.84
2023-05-09T05:40:49.826Z,247.88
2023-05-09T05:41:49.898Z,249.17
2023-05-09T05:42:49.956Z,250.41
2023-05-09T05:43:50.726Z,249.35
2023-05-09T05:44:50.027Z,250.00
2023-05-09T05:45:50.316Z,250.00
2023-05-09T05:46:50.097Z,250.00
2023-05-09T05:47:50.218Z,247.93
2023-05-09T05:48:50.139Z,250.00
2023-05-09T05:49:50.189Z,250.00
2023-05-09T05:50:50.234Z,250.00
2023-05-09T05:51:50.296Z,249.62
2023-05-09T05:52:50.275Z,249.15
2023-05-09T05:53:50.332Z,249.93
2023-05-09T05:54:50.377Z,249.14
2023-05-09T05:55:50.308Z,248.35
2023-05-09T05:56:50.331Z,248.69
2023-05-09T05:57:50.324Z,248.68
2023-05-09T05:58:50.348Z,249.35
2023-05-09T05:59:50.428Z,249.72
2023-05-09T06:00:50.423Z,249.98
2023-05-09T06:01:50.467Z,248.47
2023-05-09T06:02:50.534Z,249.25
2023-05-09T06:03:50.606Z,249.46
2023-05-09T06:04:50.645Z,249.33
2023-05-09T06:05:50.552Z,249.03
2023-05-09T06:06:50.574Z,248.80
2023-05-09T06:07:50.607Z,250.00
2023-05-09T06:08:50.648Z,249.92
2023-05-09T06:09:50.676Z,249.81
2023-05-09T06:10:50.812Z,249.43
2023-05-09T06:11:50.779Z,248.75
2023-05-09T06:12:51.032Z,250.00
2023-05-09T06:13:51.021Z,249.42
2023-05-09T06:14:50.875Z,249.37
2023-05-09T06:15:50.871Z,249.80
2023-05-09T06:16:51.002Z,249.03
2023-05-09T06:17:51.016Z,248.99
2023-05-09T06:18:52.064Z,248.51
2023-05-09T06:19:51.041Z,247.83
2023-05-09T06:20:51.077Z,249.08
2023-05-09T06:21:51.118Z,248.25
2023-05-09T06:22:51.302Z,248.75
2023-05-09T06:24:07.817Z,249.80
2023-05-09T06:24:52.168Z,249.96
2023-05-09T06:25:51.145Z,250.38
2023-05-09T06:26:51.218Z,251.46
2023-05-09T06:27:51.147Z,252.38
2023-05-09T06:28:51.318Z,254.27
2023-05-09T06:29:51.128Z,250.00
2023-05-09T06:30:51.134Z,250.00
2023-05-09T06:31:51.177Z,249.84
2023-05-09T06:32:51.145Z,248.40
2023-05-09T06:33:51.553Z,242.67
2023-05-09T06:34:51.118Z,242.30
2023-05-09T06:35:51.095Z,233.49
2023-05-09T06:36:51.095Z,222.25
2023-05-09T06:37:51.091Z,214.66
2023-05-09T06:38:51.538Z,209.74
2023-05-09T06:39:51.123Z,203.81
2023-05-09T06:40:51.165Z,192.11
2023-05-09T06:41:51.196Z,183.80
2023-05-09T06:42:51.300Z,177.62
2023-05-09T06:43:51.315Z,174.12
2023-05-09T06:44:51.306Z,172.59
2023-05-09T06:45:51.429Z,170.55
2023-05-09T06:46:51.381Z,167.35
2023-05-09T06:47:51.465Z,164.12
2023-05-09T06:48:51.478Z,164.90
2023-05-09T06:49:51.531Z,164.73
2023-05-09T06:50:51.601Z,163.45
2023-05-09T06:51:51.630Z,162.12
2023-05-09T06:52:51.679Z,160.49
2023-05-09T06:53:52.087Z,162.52
2023-05-09T06:54:51.748Z,167.40
2023-05-09T06:55:51.811Z,166.49
2023-05-09T06:56:51.949Z,169.21
2023-05-09T06:57:51.992Z,170.30
2023-05-09T06:58:52.167Z,170.13
2023-05-09T06:59:51.950Z,167.53
2023-05-09T07:00:52.111Z,162.53
2023-05-09T07:01:52.096Z,162.12
2023-05-09T07:02:52.028Z,163.41
2023-05-09T07:03:52.147Z,163.05
2023-05-09T07:04:52.115Z,163.50
2023-05-09T07:05:52.066Z,166.65
2023-05-09T07:06:52.049Z,171.39
2023-05-09T07:07:52.104Z,173.26
2023-05-09T07:08:52.551Z,170.61
2023-05-09T07:09:55.197Z,169.01
2023-05-09T07:10:53.178Z,169.02
2023-05-09T07:11:52.175Z,162.50
2023-05-09T07:12:52.171Z,159.46
2023-05-09T07:13:52.587Z,158.71
2023-05-09T07:14:52.220Z,158.06
2023-05-09T07:15:52.150Z,158.63
2023-05-09T07:16:52.190Z,164.04
2023-05-09T07:17:52.147Z,161.74
2023-05-09T07:18:52.583Z,163.16
2023-05-09T07:19:52.131Z,168.08
2023-05-09T07:20:52.146Z,163.53
2023-05-09T07:21:52.077Z,159.57
2023-05-09T07:22:52.204Z,156.15
2023-05-09T07:23:52.579Z,160.05
2023-05-09T07:24:52.183Z,155.35
2023-05-09T07:25:52.235Z,152.59
2023-05-09T07:26:52.237Z,153.48
2023-05-09T07:27:52.294Z,159.16
2023-05-09T07:28:52.577Z,157.82
2023-05-09T07:29:52.324Z,156.29
2023-05-09T07:30:52.450Z,160.40
2023-05-09T07:31:52.394Z,154.72
2023-05-09T07:32:52.573Z,149.91
2023-05-09T07:33:52.550Z,146.99
2023-05-09T07:34:52.558Z,141.36
2023-05-09T07:35:52.574Z,136.74
2023-05-09T07:36:52.588Z,128.17
2023-05-09T07:37:52.626Z,125.60
2023-05-09T07:38:52.718Z,126.05
2023-05-09T07:39:53.078Z,126.91
2023-05-09T07:40:52.700Z,126.79
2023-05-09T07:41:52.692Z,119.61
2023-05-09T07:42:52.824Z,114.25
2023-05-09T07:43:52.738Z,111.21
2023-05-09T07:44:52.746Z,110.98
2023-05-09T07:45:52.799Z,109.47
2023-05-09T07:46:52.866Z,103.53
2023-05-09T07:47:52.964Z,101.16
2023-05-09T07:48:52.893Z,98.86
2023-05-09T07:49:52.938Z,104.24
2023-05-09T07:50:52.953Z,102.74
2023-05-09T07:51:52.975Z,103.84
2023-05-09T07:52:53.045Z,101.42
2023-05-09T07:53:53.066Z,101.94
2023-05-09T07:54:53.108Z,98.35
2023-05-09T07:55:53.118Z,100.98
2023-05-09T07:56:53.177Z,98.75
2023-05-09T07:57:53.163Z,99.96
2023-05-09T07:58:55.044Z,92.05
2023-05-09T07:59:53.592Z,91.16
2023-05-09T08:00:53.325Z,91.59
2023-05-09T08:01:53.326Z,97.81
2023-05-09T08:02:53.548Z,101.39
2023-05-09T08:03:53.532Z,100.31
2023-05-09T08:04:53.444Z,85.75
2023-05-09T08:05:53.456Z,84.26
2023-05-09T08:06:53.492Z,86.12
2023-05-09T08:07:53.567Z,88.60
2023-05-09T08:08:53.595Z,87.96
2023-05-09T08:09:53.681Z,86.01
2023-05-09T08:10:53.665Z,79.96
2023-05-09T08:11:53.729Z,71.34
2023-05-09T08:12:53.786Z,61.87
2023-05-09T08:13:53.816Z,59.13
2023-05-09T08:14:53.828Z,52.90
2023-05-09T08:15:53.940Z,45.18
2023-05-09T08:16:53.908Z,42.74
2023-05-09T08:17:53.973Z,46.55
2023-05-09T08:18:54.158Z,40.76
2023-05-09T08:19:53.992Z,38.33
2023-05-09T08:20:54.029Z,44.24
2023-05-09T08:21:54.120Z,40.63
2023-05-09T08:22:54.104Z,40.01
2023-05-09T08:23:54.570Z,54.91
2023-05-09T08:24:54.176Z,67.06
2023-05-09T08:25:54.201Z,86.68
2023-05-09T08:26:54.285Z,91.49
2023-05-09T08:27:54.279Z,98.01
2023-05-09T08:28:54.282Z,99.23
2023-05-09T08:29:54.309Z,103.42
2023-05-09T08:30:54.326Z,102.46
2023-05-09T08:31:54.446Z,105.29
2023-05-09T08:32:54.446Z,108.94
2023-05-09T08:33:54.459Z,110.68
2023-05-09T08:34:54.559Z,110.31
2023-05-09T08:35:54.526Z,107.32
2023-05-09T08:36:54.561Z,109.95
2023-05-09T08:37:54.587Z,112.39
2023-05-09T08:38:54.605Z,112.95
2023-05-09T08:39:55.111Z,119.67
2023-05-09T08:40:54.692Z,123.81
2023-05-09T08:41:54.721Z,127.11
2023-05-09T08:42:54.725Z,136.46
2023-05-09T08:43:55.137Z,143.53
2023-05-09T08:44:54.745Z,149.63
2023-05-09T08:45:54.771Z,154.88
2023-05-09T08:46:54.880Z,155.93
2023-05-09T08:47:54.914Z,159.64
2023-05-09T08:48:55.125Z,162.28
2023-05-09T08:49:54.901Z,164.62
2023-05-09T08:50:55.029Z,167.07
2023-05-09T08:51:55.004Z,167.78
2023-05-09T08:52:55.039Z,168.07
2023-05-09T08:53:55.108Z,168.33
2023-05-09T08:54:55.223Z,167.60
2023-05-09T08:55:55.099Z,168.11
2023-05-09T08:56:55.270Z,169.19
2023-05-09T08:57:55.170Z,170.25
2023-05-09T08:58:55.212Z,173.88
2023-05-09T08:59:55.244Z,175.66
2023-05-09T09:00:55.296Z,176.53
2023-05-09T09:01:55.333Z,176.27
2023-05-09T09:02:55.375Z,175.37
2023-05-09T09:03:55.359Z,174.22
2023-05-09T09:04:55.396Z,175.22
2023-05-09T09:05:55.383Z,176.92
2023-05-09T09:06:55.475Z,180.48
2023-05-09T09:07:55.418Z,180.38
2023-05-09T09:08:55.458Z,178.80
2023-05-09T09:09:55.622Z,181.06
2023-05-09T09:10:55.637Z,181.84
2023-05-09T09:11:55.621Z,182.96
2023-05-09T09:12:55.592Z,182.81
2023-05-09T09:13:56.101Z,178.03
2023-05-09T09:14:55.664Z,175.56
2023-05-09T09:15:55.683Z,174.67
2023-05-09T09:16:55.881Z,173.24
2023-05-09T09:17:55.761Z,172.50
2023-05-09T09:18:56.806Z,172.61
2023-05-09T09:19:55.729Z,171.32
2023-05-09T09:20:55.736Z,171.81
2023-05-09T09:21:55.723Z,172.02
2023-05-09T09:22:55.793Z,172.96
2023-05-09T09:23:56.146Z,175.87
2023-05-09T09:24:55.703Z,177.24
2023-05-09T09:25:56.873Z,178.03
2023-05-09T09:26:55.689Z,178.16
2023-05-09T09:27:55.685Z,176.49
2023-05-09T09:28:56.127Z,175.64
2023-05-09T09:29:55.658Z,175.05
2023-05-09T09:30:55.694Z,171.26
2023-05-09T09:31:55.692Z,172.46
2023-05-09T09:32:55.702Z,175.27
2023-05-09T09:33:56.104Z,170.40
2023-05-09T09:34:56.137Z,154.50
2023-05-09T09:35:55.615Z,125.88
2023-05-09T09:36:55.625Z,136.07
2023-05-09T09:37:55.926Z,116.94
2023-05-09T09:38:55.729Z,89.70
2023-05-09T09:39:55.602Z,76.17
2023-05-09T09:40:55.630Z,58.91
2023-05-09T09:41:55.562Z,47.68
2023-05-09T09:42:55.559Z,39.38
2023-05-09T09:43:57.495Z,28.66
2023-05-09T09:44:55.619Z,28.73
2023-05-09T09:45:55.571Z,29.11
2023-05-09T09:46:55.553Z,33.17
2023-05-09T09:47:55.676Z,40.13
2023-05-09T09:48:55.515Z,53.32
2023-05-09T09:49:55.621Z,68.85
2023-05-09T09:50:55.520Z,74.73
2023-05-09T09:51:55.531Z,85.18
2023-05-09T09:52:55.510Z,81.19
2023-05-09T09:53:55.476Z,85.57
2023-05-09T09:54:55.712Z,92.06
2023-05-09T09:55:55.517Z,97.57
2023-05-09T09:56:55.486Z,93.83
2023-05-09T09:57:55.446Z,91.73
2023-05-09T09:58:55.449Z,88.55
2023-05-09T09:59:55.440Z,88.32
2023-05-09T10:00:55.476Z,88.73
2023-05-09T10:01:55.438Z,86.07
2023-05-09T10:02:55.436Z,81.27
2023-05-09T10:03:55.461Z,85.07
2023-05-09T10:04:55.443Z,91.70
2023-05-09T10:05:55.412Z,88.96
2023-05-09T10:06:55.397Z,83.91
2023-05-09T10:07:55.373Z,91.30
2023-05-09T10:08:55.390Z,88.22
2023-05-09T10:09:55.364Z,80.28
2023-05-09T10:10:55.495Z,83.56
2023-05-09T10:11:55.348Z,82.91
2023-05-09T10:12:55.373Z,82.43
2023-05-09T10:13:55.339Z,88.14
2023-05-09T10:14:55.624Z,82.39
2023-05-09T10:15:55.429Z,79.35
2023-05-09T10:16:55.409Z,82.70
2023-05-09T10:17:55.453Z,81.75
2023-05-09T10:18:55.355Z,67.98
2023-05-09T10:19:55.639Z,70.36
2023-05-09T10:20:55.290Z,67.02
2023-05-09T10:21:55.290Z,65.46
2023-05-09T10:22:55.291Z,62.45
2023-05-09T10:23:55.290Z,68.10
2023-05-09T10:24:57.007Z,74.01
2023-05-09T10:25:55.358Z,82.06
2023-05-09T10:26:55.467Z,94.69
2023-05-09T10:27:55.421Z,101.47
2023-05-09T10:28:55.460Z,108.45
2023-05-09T10:29:55.525Z,114.06
2023-05-09T10:30:55.604Z,116.91
2023-05-09T10:31:55.611Z,125.07
2023-05-09T10:32:55.654Z,131.81
2023-05-09T10:33:55.633Z,137.55
2023-05-09T10:34:56.134Z,141.26
2023-05-09T10:35:55.691Z,142.27
2023-05-09T10:36:55.696Z,142.57
2023-05-09T10:37:55.780Z,144.90
2023-05-09T10:38:55.777Z,147.67
2023-05-09T10:39:55.777Z,149.96
2023-05-09T10:40:55.811Z,150.02
2023-05-09T10:41:55.858Z,152.08
2023-05-09T10:42:55.984Z,153.88
2023-05-09T10:43:55.922Z,157.06
2023-05-09T10:44:56.140Z,157.44
2023-05-09T10:45:56.012Z,156.61
2023-05-09T10:46:56.068Z,156.83
2023-05-09T10:47:56.138Z,153.05
2023-05-09T10:48:56.130Z,152.93
2023-05-09T10:49:56.666Z,151.14
2023-05-09T10:50:56.216Z,150.21
2023-05-09T10:51:56.251Z,150.57
2023-05-09T10:52:56.308Z,149.47
2023-05-09T10:53:56.357Z,149.34
2023-05-09T10:54:56.638Z,148.93
2023-05-09T10:55:56.451Z,150.57
2023-05-09T10:56:56.487Z,154.46
2023-05-09T10:57:56.526Z,154.66
2023-05-09T10:58:56.620Z,154.26
2023-05-09T10:59:56.669Z,155.78
2023-05-09T11:00:57.411Z,158.27
2023-05-09T11:01:56.645Z,161.31
2023-05-09T11:02:56.790Z,157.48
2023-05-09T11:03:56.680Z,154.80
2023-05-09T11:04:56.662Z,151.77
2023-05-09T11:05:56.710Z,149.49
2023-05-09T11:06:57.776Z,146.09
2023-05-09T11:07:56.794Z,145.80
2023-05-09T11:08:56.809Z,142.51
2023-05-09T11:09:56.841Z,146.17
2023-05-09T11:10:56.915Z,132.71
2023-05-09T11:11:56.943Z,124.58
2023-05-09T11:12:58.038Z,119.67
2023-05-09T11:13:57.010Z,118.25
2023-05-09T11:14:57.254Z,114.07
2023-05-09T11:15:57.108Z,88.86
2023-05-09T11:16:57.122Z,91.36
2023-05-09T11:17:57.209Z,79.58
2023-05-09T11:18:57.214Z,72.96
2023-05-09T11:19:57.657Z,49.07
2023-05-09T11:20:57.250Z,21.73
2023-05-09T11:21:57.271Z,23.65
2023-05-09T11:22:57.273Z,24.77
2023-05-09T11:23:57.318Z,25.00
2023-05-09T11:24:57.345Z,14.04
2023-05-09T11:25:57.366Z,0.07
2023-05-09T11:26:57.385Z,25.00
2023-05-09T11:27:57.419Z,24.49
2023-05-09T11:28:57.440Z,0.55
2023-05-09T11:29:57.499Z,10.52
2023-05-09T11:30:57.622Z,7.46
2023-05-09T11:31:57.583Z,4.93
2023-05-09T11:32:57.621Z,0.00
2023-05-09T11:33:57.633Z,0.00
2023-05-09T11:34:57.669Z,8.06
2023-05-09T11:35:57.687Z,19.11
2023-05-09T11:36:57.740Z,29.25
2023-05-09T11:37:57.784Z,22.88
2023-05-09T11:38:57.828Z,25.00
2023-05-09T11:39:57.879Z,21.66
2023-05-09T11:40:57.910Z,22.19
2023-05-09T11:41:57.958Z,27.25
2023-05-09T11:42:58.833Z,34.29
2023-05-09T11:43:58.001Z,44.62
2023-05-09T11:44:58.069Z,43.59
2023-05-09T11:45:58.032Z,36.72
2023-05-09T11:46:58.289Z,46.00
2023-05-09T11:47:58.089Z,50.27
2023-05-09T11:48:58.171Z,45.99
2023-05-09T11:49:58.160Z,39.53
2023-05-09T11:50:58.202Z,39.13
2023-05-09T11:51:58.233Z,45.96
2023-05-09T11:52:58.276Z,50.43
2023-05-09T11:53:58.301Z,55.79
2023-05-09T11:54:58.361Z,65.04
2023-05-09T11:55:58.401Z,68.73
2023-05-09T11:56:58.477Z,71.51
2023-05-09T11:57:58.463Z,75.85
2023-05-09T11:58:58.485Z,78.94
2023-05-09T11:59:58.533Z,87.16
2023-05-09T12:00:58.566Z,97.79
2023-05-09T12:01:58.582Z,103.84
2023-05-09T12:02:58.823Z,105.49
2023-05-09T12:03:58.683Z,108.82
2023-05-09T12:04:58.688Z,115.79
2023-05-09T12:05:58.681Z,106.90
2023-05-09T12:06:58.713Z,115.19
2023-05-09T12:07:58.741Z,121.31
2023-05-09T12:08:58.752Z,127.89
2023-05-09T12:09:58.792Z,132.15
2023-05-09T12:10:58.775Z,135.79
2023-05-09T12:11:58.828Z,140.35
2023-05-09T12:12:58.897Z,142.71
2023-05-09T12:13:58.908Z,146.09
2023-05-09T12:14:58.959Z,150.51
2023-05-09T12:15:59.033Z,153.44
2023-05-09T12:16:59.012Z,156.00
2023-05-09T12:17:59.105Z,158.15
2023-05-09T12:18:59.177Z,160.88
2023-05-09T12:19:59.124Z,165.88
2023-05-09T12:20:59.118Z,168.62
2023-05-09T12:21:59.165Z,172.31
2023-05-09T12:22:59.213Z,174.73
2023-05-09T12:23:59.233Z,174.01
2023-05-09T12:24:59.259Z,174.77
2023-05-09T12:25:59.271Z,177.25
2023-05-09T12:26:59.295Z,178.88
2023-05-09T12:27:59.309Z,179.39
2023-05-09T12:28:59.332Z,180.55
2023-05-09T12:29:59.364Z,183.44
2023-05-09T12:30:59.397Z,185.11
2023-05-09T12:31:59.369Z,187.11
2023-05-09T12:32:59.403Z,188.38